This is the latest recevied weather packets stored in our database for station/object LZ1HCO-25. If no packets are shown the sender has not sent any weather packets the latest 1 day(s).
| Time | Temp. | Humidity | Pressure | Rain* | Wind** | Luminosity | Snow |
|---|---|---|---|---|---|---|---|
| 1777987075 | 26.11° C | 36% | 967 hPa | - | 0 m/s | 0 W/m² | - |
| 1777986763 | 25.56° C | 37% | 967 hPa | - | 0 m/s | 0 W/m² | - |
| 1777986452 | 26.67° C | 37% | 967 hPa | - | 0 m/s | 0 W/m² | - |
| 1777986141 | 25.56° C | 35% | 967 hPa | - | 0 m/s | 0 W/m² | - |
| 1777985829 | 26.67° C | 37% | 967 hPa | - | 0 m/s | 0 W/m² | - |
| 1777985518 | 27.22° C | 37% | 967 hPa | - | 0 m/s | 0 W/m² | - |
| 1777985207 | 26.67° C | 36% | 967 hPa | - | 0 m/s | 0 W/m² | - |
| 1777984895 | 26.11° C | 37% | 968 hPa | - | 0 m/s | 0 W/m² | - |
| 1777984587 | 26.11° C | 37% | 968 hPa | - | 0 m/s | 0 W/m² | - |
| 1777984272 | 26.67° C | 38% | 968 hPa | - | 0 m/s | 0 W/m² | - |
| 1777983961 | 26.67° C | 39% | 968 hPa | - | 0 m/s | 0 W/m² | - |
| 1777983650 | 26.67° C | 38% | 968 hPa | - | 0 m/s | 0 W/m² | - |
| 1777983338 | 26.11° C | 37% | 968 hPa | - | 0 m/s | 0 W/m² | - |
| 1777983027 | 26.67° C | 37% | 968 hPa | - | 0 m/s | 0 W/m² | - |
| 1777982716 | 27.22° C | 39% | 968 hPa | - | 0 m/s | 0 W/m² | - |
| 1777982404 | 26.67° C | 40% | 968 hPa | - | 0 m/s | 0 W/m² | - |
| 1777982093 | 27.22° C | 39% | 968 hPa | - | 0 m/s | 0 W/m² | - |
| 1777981782 | 26.11° C | 36% | 968 hPa | - | 0 m/s | 0 W/m² | - |
| 1777981470 | 27.22° C | 41% | 968 hPa | - | 0 m/s | 0 W/m² | - |
| 1777981159 | 26.11° C | 38% | 968 hPa | - | 0 m/s | 0 W/m² | - |
| 1777980848 | 26.67° C | 41% | 968 hPa | - | 0 m/s | 0 W/m² | - |
| 1777980536 | 26.11° C | 37% | 968 hPa | - | 0 m/s | 0 W/m² | - |
| 1777980225 | 26.11° C | 39% | 968 hPa | - | 0 m/s | 0 W/m² | - |
| 1777979913 | 27.78° C | 39% | 968 hPa | - | 0 m/s | 0 W/m² | - |
| 1777979602 | 27.22° C | 39% | 968 hPa | - | 0 m/s | 0 W/m² | - |
* Rain since midnight (hover to see other rain measurements)
** Current wind speed in m/s (hover to see current wind gust speed)